Groton, Connecticut
Current Conditions -  °F | °C
As of 9:56 AM on Monday 22 Dec 2014 (Local Time) from KGON Reporting Station
Overcast Overcast  
Wind Chill: 35°   Ceiling: 4700
Heat Index: 42°   Visibility: 10mi
Dew Point: 35°   Wind: 13mph
Humidity: 76%   Direction: 80°E
Pressure: 30.34"   Gusts: NA
Location:  41.35°N, 72.07°W
Report Text: KGON 221456Z 08011KT 10SM OVC047 06/02 A3034 RMK AO2 SLP272 T00560017 50000
Loading
Personal Weather Stations






























Interactive Weather Map New forecast layout! Learn more

10-Day Weather Forecast

Advertisements
Track Severe Weather on mobile